Time;durP1;ratioP1;P1;durP2;ratioP2;P2;SDS_P1;SDS_P2;PMS_P1;PMS_P2;Temp;Humidity;BMP_temperature;BMP_pressure;BME280_temperature;BME280_humidity;BME280_pressure;Samples;Min_cycle;Max_cycle;Signal;HPM_P1;HPM_P2
2022/01/27 00:03:07;;;;;;;49.78;19.38;;;6.80;99.90;;;;;;5093669;28;20093;-85
2022/01/27 00:05:04;;;;;;;55.40;19.67;;;6.80;99.90;;;;;;5082459;28;20372;-85
2022/01/27 00:07:32;;;;;;;43.67;18.95;;;6.70;99.90;;;;;;5093801;28;20123;-85
2022/01/27 00:10:16;;;;;;;48.70;19.73;;;6.70;99.90;;;;;;5092989;28;20048;-85
2022/01/27 00:12:42;;;;;;;44.85;18.92;;;6.70;99.90;;;;;;5093191;28;20044;-85
2022/01/27 00:15:12;;;;;;;45.75;17.52;;;6.80;99.90;;;;;;5076384;28;20378;-85
2022/01/27 00:17:43;;;;;;;45.05;17.35;;;6.70;99.90;;;;;;5092646;28;20438;-85
2022/01/27 00:20:10;;;;;;;46.13;18.85;;;6.70;99.90;;;;;;5093374;28;20070;-84
2022/01/27 00:22:36;;;;;;;43.15;18.17;;;6.70;99.90;;;;;;5093492;28;20056;-84
2022/01/27 00:25:03;;;;;;;41.42;17.23;;;6.80;99.90;;;;;;5093989;28;20048;-85
2022/01/27 00:27:29;;;;;;;49.80;17.92;;;6.80;99.90;;;;;;5093157;28;20048;-85
2022/01/27 00:29:54;;;;;;;37.38;18.13;;;6.80;99.90;;;;;;5075989;28;20410;-85
2022/01/27 00:32:20;;;;;;;42.25;16.25;;;6.80;99.90;;;;;;5093384;28;20055;-84
2022/01/27 00:34:46;;;;;;;48.53;19.30;;;6.70;99.90;;;;;;5093287;28;20429;-85
2022/01/27 00:37:12;;;;;;;45.70;19.52;;;6.70;99.90;;;;;;5092762;28;20071;-84
2022/01/27 00:39:37;;;;;;;43.65;17.63;;;6.70;99.90;;;;;;5093238;28;20073;-85
2022/01/27 00:42:03;;;;;;;37.67;16.73;;;6.80;99.90;;;;;;5092883;28;20348;-85
2022/01/27 00:44:29;;;;;;;39.35;17.02;;;6.80;99.90;;;;;;5093361;28;20048;-85
2022/01/27 00:46:55;;;;;;;41.85;17.45;;;6.80;99.90;;;;;;5092813;28;20053;-85
2022/01/27 00:49:21;;;;;;;37.45;16.00;;;6.70;99.90;;;;;;5092790;28;20055;-85
2022/01/27 00:51:47;;;;;;;46.38;16.77;;;6.80;99.90;;;;;;5092807;28;20510;-85
2022/01/27 00:54:23;;;;;;;48.22;17.30;;;6.80;99.90;;;;;;5092795;28;20063;-84
2022/01/27 00:56:58;;;;;;;45.65;18.75;;;6.80;99.90;;;;;;5092960;28;20051;-85
2022/01/27 01:02:00;;;;;;;53.35;20.27;;;6.80;99.90;;;;;;5076147;28;20048;-85
2022/01/27 01:04:31;;;;;;;42.38;17.83;;;6.80;99.90;;;;;;5093068;28;20123;-85
2022/01/27 01:06:57;;;;;;;51.42;18.08;;;6.90;99.90;;;;;;5093411;28;20055;-84
2022/01/27 01:14:01;;;;;;;48.45;18.67;;;6.90;99.90;;;;;;5083028;28;20048;-85
2022/01/27 01:15:24;;;;;;;49.17;19.90;;;6.80;99.90;;;;;;5078732;28;20055;-84
2022/01/27 01:18:04;;;;;;;47.55;17.23;;;6.90;99.90;;;;;;5092429;28;20051;-84
2022/01/27 01:20:43;;;;;;;48.72;18.48;;;6.80;99.90;;;;;;5092393;28;20044;-85
2022/01/27 01:36:37;;;;;;;51.67;20.95;;;6.70;99.90;;;;;;5113978;28;20058;-85
2022/01/27 01:39:06;;;;;;;55.97;21.52;;;6.70;99.90;;;;;;5112770;28;20081;-85
2022/01/27 01:41:32;;;;;;;52.65;22.17;;;6.60;99.90;;;;;;5113087;28;20047;-85
2022/01/27 01:43:59;;;;;;;57.15;20.48;;;6.50;99.90;;;;;;5112539;28;20486;-85
2022/01/27 01:46:24;;;;;;;53.97;20.83;;;6.50;99.90;;;;;;5112468;28;20607;-85
2022/01/27 01:48:50;;;;;;;51.75;20.83;;;6.50;99.90;;;;;;5095921;28;20052;-85
2022/01/27 01:51:26;;;;;;;48.10;20.67;;;6.50;99.90;;;;;;5099180;28;20047;-85
2022/01/27 01:53:53;;;;;;;43.42;20.60;;;6.40;99.90;;;;;;5116207;28;20039;-84
2022/01/27 01:56:18;;;;;;;54.72;20.80;;;6.40;99.90;;;;;;5099570;28;20043;-85
2022/01/27 01:58:44;;;;;;;56.50;22.13;;;6.40;99.90;;;;;;5115740;28;20493;-85
2022/01/27 02:01:10;;;;;;;49.20;21.23;;;6.50;99.90;;;;;;5116745;28;20051;-84
2022/01/27 02:03:36;;;;;;;51.65;20.05;;;6.40;99.90;;;;;;5115958;28;20543;-85
2022/01/27 02:06:02;;;;;;;48.40;19.77;;;6.50;99.90;;;;;;5099109;28;20051;-85
2022/01/27 02:08:37;;;;;;;52.90;20.88;;;6.50;99.90;;;;;;5116329;28;20505;-85
2022/01/27 02:19:13;;;;;;;47.60;21.48;;;6.50;99.90;;;;;;5116099;28;19952;-84
2022/01/27 02:21:57;;;;;;;52.42;21.27;;;6.50;99.90;;;;;;5099100;28;20051;-84
2022/01/27 02:24:25;;;;;;;48.72;22.75;;;6.50;99.90;;;;;;5116426;28;20043;-84
2022/01/27 02:26:51;;;;;;;51.08;22.67;;;6.60;99.90;;;;;;5098703;28;20383;-85
2022/01/27 02:29:19;;;;;;;59.08;23.45;;;6.50;99.90;;;;;;5115268;28;20039;-85
2022/01/27 02:31:45;;;;;;;50.63;23.20;;;6.60;99.90;;;;;;5115591;28;20127;-84
2022/01/27 02:34:11;;;;;;;52.55;23.45;;;6.60;99.90;;;;;;5099202;28;20078;-84
2022/01/27 02:36:37;;;;;;;57.53;22.35;;;6.50;99.90;;;;;;5098549;28;20169;-84
2022/01/27 02:39:05;;;;;;;52.10;22.92;;;6.50;99.90;;;;;;5116308;28;20047;-84
2022/01/27 02:41:36;;;;;;;51.25;21.98;;;6.50;99.90;;;;;;5117268;28;20487;-84
2022/01/27 02:44:02;;;;;;;54.80;24.42;;;6.50;99.90;;;;;;5115418;28;20043;-85
2022/01/27 02:46:41;;;;;;;51.15;23.20;;;6.50;99.90;;;;;;5115779;28;20130;-85
2022/01/27 02:49:07;;;;;;;50.53;21.58;;;6.50;99.90;;;;;;5115094;28;20052;-84
2022/01/27 02:51:36;;;;;;;48.03;23.27;;;6.50;99.90;;;;;;5098812;28;20051;-84
2022/01/27 02:54:01;;;;;;;50.80;21.52;;;6.60;99.90;;;;;;5115563;28;20052;-84
2022/01/27 02:56:27;;;;;;;58.50;25.48;;;6.50;99.90;;;;;;5115020;28;20467;-84
2022/01/27 02:58:53;;;;;;;58.35;24.30;;;6.60;99.90;;;;;;5097435;28;20135;-84
2022/01/27 03:01:20;;;;;;;55.72;25.15;;;6.60;99.90;;;;;;5079707;28;20097;-84
2022/01/27 03:03:45;;;;;;;53.17;24.10;;;6.50;99.90;;;;;;5098727;28;20039;-84
2022/01/27 03:06:11;;;;;;;56.47;25.70;;;6.50;99.90;;;;;;5114738;28;20050;-84
2022/01/27 03:08:37;;;;;;;61.63;24.98;;;6.50;99.90;;;;;;5114915;28;20051;-84
2022/01/27 03:11:08;;;;;;;55.00;24.60;;;6.50;99.90;;;;;;5114660;28;20445;-84
2022/01/27 03:13:34;;;;;;;52.25;23.83;;;6.60;99.90;;;;;;5114952;28;20474;-84
2022/01/27 03:16:00;;;;;;;54.28;25.15;;;6.50;99.90;;;;;;5114795;28;20056;-85
2022/01/27 03:18:25;;;;;;;62.63;26.85;;;6.60;99.90;;;;;;5114378;28;20055;-84
2022/01/27 03:20:51;;;;;;;56.90;23.65;;;6.60;99.90;;;;;;5097986;28;20058;-84
2022/01/27 03:23:17;;;;;;;53.45;23.52;;;6.60;99.90;;;;;;5097619;28;20496;-84
2022/01/27 03:25:46;;;;;;;51.08;23.65;;;6.70;99.90;;;;;;5097415;28;20047;-84
2022/01/27 03:28:13;;;;;;;53.33;23.95;;;6.70;99.90;;;;;;5114506;28;20432;-84
2022/01/27 03:30:39;;;;;;;56.85;23.52;;;6.70;99.90;;;;;;5114312;28;20065;-85
2022/01/27 03:33:04;;;;;;;55.67;23.23;;;6.60;99.90;;;;;;5114396;28;20035;-84
2022/01/27 03:35:30;;;;;;;56.22;23.08;;;6.70;99.90;;;;;;5114881;28;20075;-84
2022/01/27 03:37:56;;;;;;;53.70;24.95;;;6.60;99.90;;;;;;5115092;28;20052;-85
2022/01/27 03:40:21;;;;;;;52.25;24.33;;;6.80;99.90;;;;;;5113850;28;20044;-85
2022/01/27 03:43:02;;;;;;;54.67;21.90;;;6.70;99.90;;;;;;5114349;28;20159;-84
2022/01/27 03:45:28;;;;;;;49.08;23.88;;;6.80;99.90;;;;;;5114109;28;20052;-84
2022/01/27 03:47:53;;;;;;;53.75;20.90;;;6.70;99.90;;;;;;5113974;28;20044;-84
2022/01/27 03:50:19;;;;;;;55.63;22.58;;;6.60;99.90;;;;;;5113880;28;20094;-85
2022/01/27 03:52:45;;;;;;;51.53;21.17;;;6.70;99.90;;;;;;5114153;28;20039;-84
2022/01/27 03:55:11;;;;;;;54.30;23.10;;;6.80;99.90;;;;;;5113790;28;20082;-84
2022/01/27 03:57:36;;;;;;;51.72;23.17;;;6.80;99.90;;;;;;5113817;28;20046;-84
2022/01/27 04:00:05;;;;;;;51.83;22.98;;;6.80;99.90;;;;;;5112965;28;20223;-84
2022/01/27 04:02:31;;;;;;;55.15;23.65;;;6.80;99.90;;;;;;5113871;28;20383;-85
2022/01/27 04:04:56;;;;;;;50.25;23.00;;;6.80;99.90;;;;;;5113865;28;20050;-85
2022/01/27 04:07:22;;;;;;;57.63;22.02;;;6.90;99.90;;;;;;5097051;28;20216;-84
2022/01/27 04:09:47;;;;;;;51.42;21.40;;;6.80;99.90;;;;;;5096873;28;20046;-83
2022/01/27 04:12:13;;;;;;;54.60;20.92;;;6.80;99.90;;;;;;5079328;28;20079;-84
2022/01/27 04:14:39;;;;;;;53.50;21.67;;;6.90;99.90;;;;;;5113949;28;20085;-84
2022/01/27 04:17:05;;;;;;;55.75;21.38;;;7.00;99.90;;;;;;5096569;28;20387;-84
2022/01/27 04:19:30;;;;;;;51.15;22.02;;;6.90;99.90;;;;;;5097406;28;20055;-84
2022/01/27 04:21:56;;;;;;;51.90;21.95;;;6.90;99.90;;;;;;5113976;28;20046;-84
2022/01/27 04:24:21;;;;;;;52.20;20.10;;;6.90;99.90;;;;;;5096128;28;20044;-84
2022/01/27 04:26:48;;;;;;;50.25;20.52;;;6.90;99.90;;;;;;5096395;28;20135;-84
2022/01/27 04:29:16;;;;;;;58.13;21.23;;;6.80;99.90;;;;;;5112886;28;20051;-85
2022/01/27 04:31:44;;;;;;;52.17;20.25;;;6.90;99.90;;;;;;5096624;28;20474;-84
2022/01/27 04:34:11;;;;;;;48.03;21.15;;;6.90;99.90;;;;;;5113368;28;20130;-84
2022/01/27 04:36:39;;;;;;;55.10;22.38;;;6.90;99.90;;;;;;5113597;28;20048;-84
2022/01/27 04:39:22;;;;;;;47.08;20.63;;;6.90;99.90;;;;;;5113305;28;20048;-84
2022/01/27 04:46:53;;;;;;;57.08;22.23;;;6.90;99.90;;;;;;5112980;28;20467;-84
2022/01/27 04:49:18;;;;;;;;;;;6.90;99.90;;;;;;5114066;28;20055;-84
2022/01/27 04:51:44;;;;;;;54.33;21.43;;;7.00;99.90;;;;;;5079372;28;20380;-84
2022/01/27 04:56:40;;;;;;;60.92;22.00;;;6.90;99.90;;;;;;5113065;28;20048;-84
2022/01/27 04:59:30;;;;;;;56.03;19.73;;;6.90;99.90;;;;;;5112883;28;20050;-84
2022/01/27 05:01:58;;;;;;;58.08;21.00;;;6.90;99.90;;;;;;5112651;28;20043;-84
2022/01/27 05:04:29;;;;;;;49.60;19.95;;;6.90;99.90;;;;;;5081175;28;20501;-84
2022/01/27 05:06:55;;;;;;;56.95;21.70;;;7.00;99.90;;;;;;5112870;28;20055;-85
2022/01/27 05:09:23;;;;;;;56.63;20.45;;;7.00;99.90;;;;;;5113001;28;20052;-84
2022/01/27 05:11:53;;;;;;;58.63;20.95;;;7.00;99.90;;;;;;5113027;28;20044;-84
2022/01/27 05:14:24;;;;;;;59.13;22.67;;;7.00;99.90;;;;;;5113259;28;20473;-84
2022/01/27 05:16:51;;;;;;;70.57;24.27;;;7.00;99.90;;;;;;5112839;28;20398;-84
2022/01/27 05:19:17;;;;;;;61.25;22.48;;;6.90;99.90;;;;;;5112427;28;20531;-84
2022/01/27 05:21:43;;;;;;;68.88;24.80;;;6.80;99.90;;;;;;5113538;28;20047;-84
2022/01/27 05:24:10;;;;;;;68.32;23.92;;;6.90;99.90;;;;;;5113724;28;20070;-84
2022/01/27 05:26:36;;;;;;;73.00;24.23;;;6.80;99.90;;;;;;5100162;28;20420;-84
2022/01/27 05:29:03;;;;;;;72.13;25.15;;;6.90;99.90;;;;;;5099287;28;20051;-84
2022/01/27 05:31:29;;;;;;;79.10;26.42;;;6.90;99.90;;;;;;5116700;28;20143;-85
2022/01/27 05:33:55;;;;;;;84.38;26.90;;;6.90;99.90;;;;;;5116798;28;20048;-84
2022/01/27 05:36:21;;;;;;;80.10;29.80;;;6.80;99.90;;;;;;5099649;28;20126;-84
2022/01/27 05:38:46;;;;;;;89.40;26.70;;;6.80;99.90;;;;;;5116383;28;20048;-85
2022/01/27 05:41:14;;;;;;;88.18;26.27;;;6.70;99.90;;;;;;5116362;28;20504;-85
2022/01/27 05:43:40;;;;;;;88.18;29.60;;;6.80;99.90;;;;;;5116366;28;20471;-84
2022/01/27 05:46:07;;;;;;;88.68;27.45;;;6.80;99.90;;;;;;5116438;28;20466;-85
2022/01/27 05:48:32;;;;;;;91.07;28.95;;;6.80;99.90;;;;;;5099406;28;20052;-84
2022/01/27 05:50:58;;;;;;;90.03;30.48;;;6.80;99.90;;;;;;5116358;28;20126;-84
2022/01/27 05:53:24;;;;;;;112.22;30.98;;;6.80;99.90;;;;;;5099237;28;20112;-85
2022/01/27 05:55:50;;;;;;;98.93;29.23;;;6.80;99.90;;;;;;5116211;28;20459;-85
2022/01/27 05:58:16;;;;;;;88.03;28.50;;;6.80;99.90;;;;;;5099168;28;20134;-85
2022/01/27 06:00:41;;;;;;;93.93;30.45;;;6.70;99.90;;;;;;5115426;28;20097;-84
2022/01/27 06:03:07;;;;;;;104.47;32.30;;;6.80;99.90;;;;;;5115988;28;20050;-84
2022/01/27 06:05:33;;;;;;;111.53;30.73;;;6.80;99.90;;;;;;5116064;28;20432;-84
2022/01/27 06:07:59;;;;;;;99.97;29.17;;;6.90;99.90;;;;;;5115935;28;20074;-84
2022/01/27 06:10:26;;;;;;;120.90;32.63;;;6.90;99.90;;;;;;5115326;28;20047;-84
2022/01/27 06:12:56;;;;;;;97.55;28.15;;;6.90;99.90;;;;;;5116016;28;20108;-84
2022/01/27 06:15:23;;;;;;;95.55;32.15;;;6.90;99.90;;;;;;5115818;28;20445;-84
2022/01/27 06:17:49;;;;;;;95.68;29.40;;;6.90;99.90;;;;;;5115142;28;20055;-84
2022/01/27 06:20:17;;;;;;;98.72;30.02;;;6.90;99.90;;;;;;5115450;28;20048;-84
2022/01/27 06:22:43;;;;;;;99.40;29.02;;;6.80;99.90;;;;;;5115705;28;20116;-83
2022/01/27 06:25:10;;;;;;;98.25;29.05;;;7.00;99.90;;;;;;5115569;28;20474;-83
2022/01/27 06:27:36;;;;;;;87.18;28.88;;;6.90;99.90;;;;;;5115649;28;20108;-83
2022/01/27 06:30:04;;;;;;;88.05;28.10;;;6.90;99.90;;;;;;5115060;28;20052;-83
2022/01/27 06:32:30;;;;;;;86.15;29.20;;;6.90;99.90;;;;;;5098895;28;20044;-83
2022/01/27 06:34:56;;;;;;;86.32;29.27;;;6.90;99.90;;;;;;5115157;28;20040;-83
2022/01/27 06:37:22;;;;;;;86.72;27.90;;;6.90;99.90;;;;;;5116188;28;20040;-83
2022/01/27 06:39:48;;;;;;;85.97;30.05;;;6.80;99.90;;;;;;5115145;28;20043;-82
2022/01/27 06:42:13;;;;;;;81.60;26.48;;;6.90;99.90;;;;;;5098346;28;20044;-83
2022/01/27 06:44:39;;;;;;;77.35;25.67;;;6.90;99.90;;;;;;5114948;28;20054;-83
2022/01/27 06:47:05;;;;;;;81.60;27.27;;;6.90;99.90;;;;;;5115158;28;20048;-83
2022/01/27 06:49:31;;;;;;;71.65;24.95;;;7.00;99.90;;;;;;5115201;28;20085;-83
2022/01/27 06:51:56;;;;;;;66.70;24.77;;;7.00;99.90;;;;;;5114997;28;20082;-83
2022/01/27 06:54:22;;;;;;;62.63;22.08;;;7.00;99.90;;;;;;5116570;28;20059;-82
2022/01/27 06:56:49;;;;;;;70.35;22.95;;;7.00;99.90;;;;;;5120694;28;20048;-82
2022/01/27 06:59:15;;;;;;;78.22;23.10;;;7.00;99.90;;;;;;5102035;28;20047;-82
2022/01/27 07:01:41;;;;;;;59.75;20.95;;;7.10;99.90;;;;;;5097844;28;20044;-82
2022/01/27 07:04:06;;;;;;;63.30;21.58;;;7.10;99.90;;;;;;5097903;28;20096;-82
2022/01/27 07:06:33;;;;;;;53.40;21.38;;;7.10;99.90;;;;;;5081020;28;20122;-83
2022/01/27 07:08:59;;;;;;;61.28;22.00;;;7.20;99.90;;;;;;5097663;28;20050;-82
2022/01/27 07:11:25;;;;;;;68.90;21.48;;;7.10;99.90;;;;;;5097781;28;20386;-82
2022/01/27 07:13:51;;;;;;;64.38;20.98;;;7.10;99.90;;;;;;5114623;28;20059;-82
2022/01/27 07:16:17;;;;;;;69.53;23.45;;;7.20;99.90;;;;;;5097826;28;20058;-83
2022/01/27 07:18:42;;;;;;;65.55;22.08;;;7.20;99.90;;;;;;5114056;28;20051;-82
2022/01/27 07:21:08;;;;;;;55.53;21.77;;;7.20;99.90;;;;;;5114511;28;20058;-82
2022/01/27 07:23:34;;;;;;;61.95;22.75;;;7.30;99.90;;;;;;5097498;28;20043;-82
2022/01/27 07:26:00;;;;;;;52.80;21.75;;;7.20;99.90;;;;;;5114574;28;20101;-82
2022/01/27 07:28:25;;;;;;;55.25;18.98;;;7.20;99.90;;;;;;5114297;28;20077;-82
2022/01/27 07:30:51;;;;;;;50.05;18.30;;;7.30;99.90;;;;;;5113922;28;20466;-83
2022/01/27 07:33:17;;;;;;;50.40;20.23;;;7.30;99.90;;;;;;5114156;28;20519;-82
2022/01/27 07:35:42;;;;;;;66.85;21.33;;;7.30;99.90;;;;;;5114664;28;20398;-83
2022/01/27 07:38:08;;;;;;;58.17;19.35;;;7.30;99.90;;;;;;5114124;28;20108;-83
2022/01/27 07:40:34;;;;;;;58.10;20.08;;;7.30;99.90;;;;;;5096915;28;20135;-83
2022/01/27 07:43:00;;;;;;;67.95;22.23;;;7.40;99.90;;;;;;5113973;28;20047;-83
2022/01/27 07:45:26;;;;;;;50.00;19.73;;;7.50;99.90;;;;;;5114413;28;20055;-83
2022/01/27 07:47:52;;;;;;;56.08;20.35;;;7.40;99.90;;;;;;5113425;28;20091;-83
2022/01/27 07:50:18;;;;;;;56.50;20.60;;;7.40;99.90;;;;;;5113895;28;20066;-83
2022/01/27 07:52:44;;;;;;;68.35;23.05;;;7.50;99.90;;;;;;5113836;28;20093;-83
2022/01/27 07:55:12;;;;;;;61.08;20.35;;;7.50;99.90;;;;;;5113932;28;20071;-83
2022/01/27 07:57:39;;;;;;;84.90;23.48;;;7.50;99.90;;;;;;5113910;28;20093;-83
2022/01/27 08:00:06;;;;;;;63.60;21.25;;;7.60;99.90;;;;;;5113181;28;20105;-83
2022/01/27 08:02:31;;;;;;;78.43;24.15;;;7.60;99.90;;;;;;5114124;28;20044;-83
2022/01/27 08:04:57;;;;;;;78.13;23.48;;;7.70;99.90;;;;;;5096759;28;20388;-83
2022/01/27 08:07:23;;;;;;;70.13;22.30;;;7.70;99.90;;;;;;5113732;28;20043;-83
2022/01/27 08:09:49;;;;;;;67.47;22.15;;;7.70;99.90;;;;;;5096760;28;20535;-83
2022/01/27 08:12:15;;;;;;;81.28;21.13;;;7.70;99.90;;;;;;5113537;28;20044;-83
2022/01/27 08:14:41;;;;;;;70.47;21.55;;;7.60;99.90;;;;;;5113476;28;20044;-83
2022/01/27 08:17:07;;;;;;;65.57;21.17;;;7.70;99.90;;;;;;5113233;28;20046;-83
2022/01/27 08:19:33;;;;;;;64.28;21.40;;;7.70;99.90;;;;;;5113044;28;20055;-84
2022/01/27 08:21:59;;;;;;;71.88;21.38;;;7.70;99.90;;;;;;5113460;28;20398;-83
2022/01/27 08:24:25;;;;;;;64.93;19.35;;;7.80;99.90;;;;;;5113531;28;20043;-83
2022/01/27 08:26:56;;;;;;;59.88;19.40;;;7.80;99.90;;;;;;5113329;28;20044;-83
2022/01/27 08:29:28;;;;;;;49.50;15.55;;;7.80;99.90;;;;;;5112803;28;20491;-83
2022/01/27 08:34:29;;;;;;;49.22;15.80;;;7.90;99.90;;;;;;5096312;28;20044;-84
2022/01/27 08:36:56;;;;;;;46.67;15.32;;;7.90;99.90;;;;;;5113330;28;20051;-82
2022/01/27 08:39:23;;;;;;;49.05;15.27;;;8.00;99.90;;;;;;5113469;28;20047;-74
2022/01/27 08:41:48;;;;;;;44.53;14.27;;;8.10;99.90;;;;;;5113168;28;20051;-75
2022/01/27 08:44:14;;;;;;;48.72;13.75;;;8.20;99.90;;;;;;5113187;28;20066;-76
2022/01/27 08:46:40;;;;;;;45.75;13.80;;;8.20;99.90;;;;;;5113190;28;20193;-75
2022/01/27 08:49:06;;;;;;;46.75;12.52;;;8.20;99.90;;;;;;5113101;28;20149;-74
2022/01/27 08:51:32;;;;;;;42.20;12.75;;;8.30;99.90;;;;;;5112579;28;20402;-74
2022/01/27 08:53:59;;;;;;;41.30;12.77;;;8.30;99.90;;;;;;5114927;28;20050;-75
2022/01/27 08:56:25;;;;;;;37.63;11.70;;;8.20;99.90;;;;;;5121062;28;20043;-73
2022/01/27 08:58:51;;;;;;;43.53;11.50;;;8.20;99.90;;;;;;5115870;28;20497;-75
2022/01/27 09:01:17;;;;;;;41.72;10.90;;;8.30;99.90;;;;;;5116859;28;20043;-72
2022/01/27 09:03:43;;;;;;;48.53;11.68;;;8.30;99.90;;;;;;5117851;27;20410;-72
2022/01/27 09:06:09;;;;;;;36.25;10.55;;;8.30;99.90;;;;;;5116749;28;20044;-73
2022/01/27 09:08:34;;;;;;;45.88;10.10;;;8.30;99.90;;;;;;5117317;28;20040;-72
2022/01/27 09:11:00;;;;;;;39.88;10.52;;;8.40;99.90;;;;;;5117004;28;20043;-73
2022/01/27 09:13:26;;;;;;;40.53;10.68;;;8.40;99.90;;;;;;5118031;28;20054;-74
2022/01/27 09:15:51;;;;;;;38.05;9.68;;;8.50;99.90;;;;;;5100541;28;20096;-74
2022/01/27 09:18:17;;;;;;;39.63;9.77;;;8.40;99.90;;;;;;5116859;28;20047;-74
2022/01/27 09:20:44;;;;;;;36.25;9.95;;;8.50;99.90;;;;;;5116614;28;20051;-73
2022/01/27 09:23:14;;;;;;;40.63;9.13;;;8.50;99.90;;;;;;5116723;28;20090;-74
2022/01/27 09:25:46;;;;;;;37.25;8.57;;;8.50;99.90;;;;;;5116691;28;20505;-74
2022/01/27 09:28:13;;;;;;;41.92;7.93;;;8.50;99.90;;;;;;5116919;28;20487;-73
2022/01/27 09:30:40;;;;;;;31.05;7.70;;;8.50;99.90;;;;;;5117271;28;20043;-74
2022/01/27 09:33:07;;;;;;;26.92;7.80;;;8.50;99.90;;;;;;5116624;28;20058;-73
2022/01/27 09:35:33;;;;;;;36.50;8.43;;;8.50;99.90;;;;;;5116612;28;20390;-73
2022/01/27 09:38:00;;;;;;;29.65;7.72;;;8.50;99.90;;;;;;5116488;28;20043;-73
2022/01/27 09:40:28;;;;;;;33.47;7.35;;;8.50;99.90;;;;;;5118288;28;20367;-75
2022/01/27 09:42:55;;;;;;;31.73;7.45;;;8.60;99.90;;;;;;5116372;28;20126;-74
2022/01/27 09:45:23;;;;;;;43.08;8.57;;;8.60;99.90;;;;;;5117349;28;20100;-74
2022/01/27 09:47:55;;;;;;;30.02;7.53;;;8.70;99.90;;;;;;5116143;28;20393;-74
2022/01/27 09:53:11;;;;;;;33.63;6.38;;;8.80;99.90;;;;;;5116404;28;20066;-74
2022/01/27 09:55:37;;;;;;;26.15;5.72;;;8.80;99.90;;;;;;5117288;28;20047;-74
2022/01/27 09:58:04;;;;;;;29.33;6.25;;;8.80;99.90;;;;;;5116036;28;20052;-74
2022/01/27 10:00:30;;;;;;;27.35;6.47;;;8.90;99.90;;;;;;5115386;28;20402;-74
2022/01/27 10:03:11;;;;;;;27.13;5.70;;;8.90;99.90;;;;;;5116105;28;20083;-74
2022/01/27 10:05:38;;;;;;;29.40;6.47;;;8.90;99.90;;;;;;5115889;28;20044;-74
2022/01/27 10:08:17;;;;;;;33.90;6.18;;;9.00;99.90;;;;;;5115963;28;20051;-73
2022/01/27 10:10:47;;;;;;;30.92;7.65;;;8.90;99.90;;;;;;5115253;28;20047;-73
2022/01/27 10:13:39;;;;;;;29.73;5.95;;;9.00;99.90;;;;;;5117054;28;20130;-73
2022/01/27 10:16:07;;;;;;;34.80;7.20;;;9.00;99.90;;;;;;5098526;28;21168;-73
2022/01/27 10:18:36;;;;;;;29.55;6.35;;;9.00;99.90;;;;;;5065808;28;20144;-77
2022/01/27 10:21:05;;;;;;;39.63;5.50;;;9.00;99.90;;;;;;5072116;28;20058;-76
2022/01/27 10:23:37;;;;;;;20.42;5.75;;;9.10;99.90;;;;;;5065049;28;20060;-79
2022/01/27 10:26:13;;;;;;;38.88;6.57;;;9.10;99.90;;;;;;5066088;28;20055;-80
2022/01/27 10:28:46;;;;;;;29.50;5.10;;;9.10;99.90;;;;;;5071122;28;20047;-72
2022/01/27 10:31:21;;;;;;;27.45;4.95;;;9.10;99.90;;;;;;5069732;28;20036;-74
2022/01/27 10:33:55;;;;;;;22.20;4.85;;;9.20;99.90;;;;;;5072827;28;20048;-74
2022/01/27 10:36:26;;;;;;;25.33;4.65;;;9.10;99.90;;;;;;5073890;28;20488;-73
2022/01/27 10:39:00;;;;;;;29.73;5.65;;;9.10;99.90;;;;;;5074666;28;20110;-73
2022/01/27 10:41:29;;;;;;;27.75;5.45;;;9.20;99.90;;;;;;5074786;28;20049;-73
2022/01/27 10:44:17;;;;;;;23.50;4.95;;;9.30;99.90;;;;;;5075435;28;20491;-73
2022/01/27 10:47:01;;;;;;;27.92;5.13;;;9.30;99.90;;;;;;5063121;28;20052;-79
2022/01/27 10:49:34;;;;;;;26.35;6.82;;;9.40;99.90;;;;;;5088560;27;20130;-77
2022/01/27 10:52:00;;;;;;;24.88;4.97;;;9.50;99.90;;;;;;5065722;28;20305;-78
2022/01/27 10:54:39;;;;;;;28.85;4.50;;;9.40;99.90;;;;;;5066822;28;20051;-75
2022/01/27 10:57:07;;;;;;;30.20;5.20;;;9.50;99.90;;;;;;5064959;28;20058;-79
2022/01/27 10:59:33;;;;;;;30.88;4.82;;;9.50;99.90;;;;;;5067762;28;20102;-74
2022/01/27 11:02:04;;;;;;;20.83;4.68;;;9.60;99.90;;;;;;5057872;28;20112;-74
2022/01/27 11:04:42;;;;;;;26.75;4.63;;;9.60;99.90;;;;;;5074117;28;20388;-74
2022/01/27 11:07:10;;;;;;;25.40;4.60;;;9.60;99.90;;;;;;5082053;28;20048;-71
2022/01/27 11:09:39;;;;;;;28.77;5.03;;;9.70;99.90;;;;;;5074823;28;20045;-73
2022/01/27 11:12:10;;;;;;;17.77;4.03;;;9.70;99.90;;;;;;5057029;28;20048;-73
2022/01/27 11:14:36;;;;;;;30.27;4.82;;;9.60;99.90;;;;;;5074930;28;20049;-73
2022/01/27 11:17:07;;;;;;;17.33;3.97;;;9.60;99.90;;;;;;5091371;28;20051;-73
2022/01/27 11:27:55;;;;;;;37.30;4.72;;;9.50;99.90;;;;;;5077823;28;20083;-75
2022/01/27 11:30:30;;;;;;;26.27;4.20;;;9.60;99.90;;;;;;5076532;28;20060;-75
2022/01/27 11:33:03;;;;;;;28.13;4.20;;;9.60;99.90;;;;;;5076734;28;20048;-73
2022/01/27 11:35:29;;;;;;;31.33;4.38;;;9.60;99.90;;;;;;5076760;28;20045;-73
2022/01/27 11:38:01;;;;;;;23.10;4.25;;;9.70;99.90;;;;;;5056768;28;20048;-76
2022/01/27 11:40:38;;;;;;;28.85;3.85;;;9.80;99.90;;;;;;5066111;28;20054;-75
2022/01/27 11:43:06;;;;;;;28.13;3.80;;;9.70;99.90;;;;;;5083644;28;20048;-80
2022/01/27 11:45:38;;;;;;;33.47;4.53;;;9.80;99.90;;;;;;5090181;28;20040;-78
2022/01/27 11:48:22;;;;;;;32.13;4.03;;;9.80;99.90;;;;;;5089427;28;20048;-80
2022/01/27 11:51:10;;;;;;;29.02;4.00;;;9.80;99.90;;;;;;5075485;28;20066;-83
2022/01/27 11:53:49;;;;;;;30.35;4.10;;;9.80;99.90;;;;;;5076248;28;20390;-77
2022/01/27 11:56:23;;;;;;;26.48;3.97;;;9.70;99.90;;;;;;5076495;28;20044;-78
2022/01/27 11:58:52;;;;;;;26.08;4.10;;;9.70;99.90;;;;;;5093641;28;20050;-78
2022/01/27 12:01:25;;;;;;;30.20;3.50;;;9.70;99.90;;;;;;5076270;28;20043;-77
2022/01/27 12:04:06;;;;;;;24.67;3.50;;;9.70;99.90;;;;;;5093394;28;20059;-77
2022/01/27 12:06:48;;;;;;;21.50;3.20;;;9.80;99.90;;;;;;5127454;27;20051;-77
2022/01/27 12:09:20;;;;;;;22.88;3.25;;;9.70;99.90;;;;;;5076583;28;20182;-76
2022/01/27 12:11:55;;;;;;;22.00;2.90;;;9.70;99.90;;;;;;5076327;28;20051;-78
2022/01/27 12:14:29;;;;;;;28.30;3.47;;;9.80;99.90;;;;;;5093982;28;20137;-75
2022/01/27 12:17:10;;;;;;;28.23;4.13;;;9.80;99.90;;;;;;5093197;28;20525;-75
2022/01/27 12:19:55;;;;;;;29.25;4.10;;;9.80;99.90;;;;;;5092550;28;20128;-76
2022/01/27 12:22:28;;;;;;;27.73;3.60;;;9.80;99.90;;;;;;5093298;28;20090;-77
2022/01/27 12:24:59;;;;;;;29.52;3.88;;;9.80;99.90;;;;;;5093275;28;20059;-73
2022/01/27 12:27:27;;;;;;;23.00;2.92;;;9.70;99.90;;;;;;5093298;28;20109;-75
2022/01/27 12:29:55;;;;;;;33.33;3.95;;;9.70;99.90;;;;;;5093612;28;20048;-75
2022/01/27 12:32:32;;;;;;;28.75;3.90;;;9.70;99.90;;;;;;5093332;28;20074;-75
2022/01/27 12:35:00;;;;;;;26.50;3.80;;;9.70;99.90;;;;;;5092526;28;20052;-75
2022/01/27 12:37:34;;;;;;;28.85;3.92;;;9.60;99.90;;;;;;5094143;28;20044;-75
2022/01/27 12:40:06;;;;;;;31.25;4.13;;;9.60;99.90;;;;;;5092898;28;20070;-75
2022/01/27 12:42:36;;;;;;;30.25;3.83;;;9.70;99.90;;;;;;5093905;28;20109;-75
2022/01/27 12:45:10;;;;;;;26.85;3.75;;;9.70;99.90;;;;;;5092873;28;20052;-75
2022/01/27 12:47:47;;;;;;;26.95;2.70;;;9.70;99.90;;;;;;5092916;28;20137;-75
2022/01/27 12:50:22;;;;;;;30.65;4.07;;;9.70;99.90;;;;;;5092729;28;20060;-76
2022/01/27 12:52:57;;;;;;;28.73;3.45;;;9.80;99.90;;;;;;5093798;28;20047;-76
2022/01/27 12:55:33;;;;;;;31.92;4.10;;;9.90;99.90;;;;;;5092850;28;20055;-75
2022/01/27 12:58:07;;;;;;;29.85;3.72;;;9.80;99.90;;;;;;5092925;28;20047;-77
2022/01/27 13:00:47;;;;;;;29.65;4.10;;;9.80;99.90;;;;;;5092216;28;20044;-76
2022/01/27 13:03:14;;;;;;;29.48;3.30;;;9.90;99.90;;;;;;5092698;28;20052;-76
2022/01/27 13:05:47;;;;;;;25.30;3.05;;;9.80;99.90;;;;;;5126997;28;20139;-73
2022/01/27 13:08:15;;;;;;;23.92;3.38;;;9.80;99.90;;;;;;5093514;28;20258;-81
2022/01/27 13:10:48;;;;;;;22.35;3.53;;;9.80;99.90;;;;;;5093147;28;20052;-87
2022/01/27 13:13:19;;;;;;;27.17;2.97;;;9.70;99.90;;;;;;5092382;28;20048;-77
2022/01/27 13:15:46;;;;;;;30.17;3.58;;;9.70;99.90;;;;;;5092641;28;20048;-76
2022/01/27 13:18:18;;;;;;;25.48;3.22;;;9.80;99.90;;;;;;5092059;28;20138;-76
2022/01/27 13:20:50;;;;;;;27.05;3.28;;;9.80;99.90;;;;;;5075848;28;20048;-77
2022/01/27 13:23:36;;;;;;;29.83;3.97;;;9.90;99.90;;;;;;5092765;28;20048;-77
2022/01/27 13:26:05;;;;;;;32.85;3.42;;;10.00;99.90;;;;;;5092590;28;20067;-77
2022/01/27 13:28:38;;;;;;;24.15;2.80;;;9.90;99.90;;;;;;5092354;28;20070;-77
2022/01/27 13:31:11;;;;;;;24.92;3.00;;;9.90;99.90;;;;;;5092120;28;20052;-77
2022/01/27 13:33:44;;;;;;;28.05;3.60;;;9.90;99.90;;;;;;5092884;28;20395;-73
2022/01/27 13:36:21;;;;;;;30.42;3.65;;;9.80;99.90;;;;;;5092553;28;20044;-75
2022/01/27 13:41:31;;;;;;;33.25;3.45;;;9.90;99.90;;;;;;5093130;28;20345;-78